Time;durP1;ratioP1;P1;durP2;ratioP2;P2;SDS_P1;SDS_P2;PMS_P1;PMS_P2;Temp;Humidity;BMP_temperature;BMP_pressure;BME280_temperature;BME280_humidity;BME280_pressure;Samples;Min_cycle;Max_cycle;Signal;HPM_P1;HPM_P2
2023/07/17 00:00:33;;;;;;;5.73;3.20;;;;;;;;;;5052864;28;20188;-80
2023/07/17 00:02:59;;;;;;;4.47;3.20;;;;;;;;;;5055201;28;20178;-80
2023/07/17 00:05:25;;;;;;;4.27;3.40;;;;;;;;;;5054680;28;20216;-80
2023/07/17 00:07:51;;;;;;;5.20;3.50;;;;;;;;;;5054800;28;20166;-80
2023/07/17 00:10:17;;;;;;;4.23;3.40;;;;;;;;;;5051779;28;20181;-79
2023/07/17 00:12:43;;;;;;;5.53;3.33;;;;;;;;;;5034988;28;20197;-80
2023/07/17 00:15:10;;;;;;;4.27;3.10;;;;;;;;;;5040957;28;20616;-80
2023/07/17 00:17:36;;;;;;;4.90;3.30;;;;;;;;;;5044684;28;20178;-80
2023/07/17 00:20:06;;;;;;;6.13;3.93;;;;;;;;;;5055019;28;20217;-80
2023/07/17 00:22:34;;;;;;;4.80;3.47;;;;;;;;;;5049873;28;20175;-80
2023/07/17 00:25:00;;;;;;;4.67;3.40;;;;;;;;;;5050234;28;20209;-80
2023/07/17 00:27:26;;;;;;;5.13;3.40;;;;;;;;;;5052607;28;20182;-80
2023/07/17 00:29:53;;;;;;;4.70;3.33;;;;;;;;;;5050177;28;20854;-80
2023/07/17 00:32:20;;;;;;;4.47;3.50;;;;;;;;;;5045122;28;20201;-80
2023/07/17 00:34:46;;;;;;;4.17;3.20;;;;;;;;;;5043333;28;20198;-80
2023/07/17 00:37:12;;;;;;;5.60;3.50;;;;;;;;;;5044235;28;20713;-80
2023/07/17 00:39:38;;;;;;;5.33;3.43;;;;;;;;;;5045263;28;20181;-80
2023/07/17 00:42:05;;;;;;;4.73;3.47;;;;;;;;;;5044570;28;20744;-80
2023/07/17 00:44:31;;;;;;;5.70;3.40;;;;;;;;;;5022660;28;20241;-79
2023/07/17 00:46:59;;;;;;;5.20;3.60;;;;;;;;;;5021944;28;20734;-80
2023/07/17 00:49:26;;;;;;;4.37;3.60;;;;;;;;;;5044250;28;20184;-80
2023/07/17 00:51:53;;;;;;;5.17;3.40;;;;;;;;;;5039246;28;20244;-80
2023/07/17 00:54:19;;;;;;;6.03;3.70;;;;;;;;;;5033790;28;20178;-80
2023/07/17 00:56:46;;;;;;;4.53;3.30;;;;;;;;;;5049512;28;20189;-79
2023/07/17 00:59:13;;;;;;;5.37;3.27;;;;;;;;;;5051086;28;20185;-80
2023/07/17 01:01:40;;;;;;;4.93;3.83;;;;;;;;;;5052417;28;20200;-80
2023/07/17 01:04:07;;;;;;;5.03;3.60;;;;;;;;;;5051465;28;20688;-80
2023/07/17 01:06:38;;;;;;;4.40;3.53;;;;;;;;;;5046619;28;20179;-80
2023/07/17 01:09:04;;;;;;;5.87;3.40;;;;;;;;;;5046614;28;20210;-80
2023/07/17 01:11:31;;;;;;;4.17;3.10;;;;;;;;;;5047208;28;20202;-80
2023/07/17 01:13:57;;;;;;;5.87;3.80;;;;;;;;;;5038744;28;20201;-80
2023/07/17 01:16:23;;;;;;;5.70;3.80;;;;;;;;;;5043249;28;20210;-80
2023/07/17 01:18:49;;;;;;;7.33;3.90;;;;;;;;;;5024148;28;20182;-80
2023/07/17 01:21:16;;;;;;;5.77;3.70;;;;;;;;;;5025591;28;20212;-80
2023/07/17 01:23:44;;;;;;;5.10;3.70;;;;;;;;;;5032548;28;20185;-80
2023/07/17 01:26:16;;;;;;;5.00;3.57;;;;;;;;;;5032078;28;20615;-80
2023/07/17 01:28:42;;;;;;;4.47;3.60;;;;;;;;;;5038461;28;20177;-80
2023/07/17 01:31:09;;;;;;;5.63;3.60;;;;;;;;;;5053904;28;20205;-80
2023/07/17 01:33:35;;;;;;;6.27;3.90;;;;;;;;;;5052558;28;20206;-80
2023/07/17 01:36:02;;;;;;;6.13;3.70;;;;;;;;;;5049092;28;20347;-80
2023/07/17 01:38:28;;;;;;;4.43;3.33;;;;;;;;;;5049428;28;20193;-79
2023/07/17 01:40:54;;;;;;;4.83;3.57;;;;;;;;;;5053669;28;20653;-80
2023/07/17 01:43:20;;;;;;;4.93;3.50;;;;;;;;;;5038597;28;20225;-80
2023/07/17 01:45:46;;;;;;;4.07;3.40;;;;;;;;;;5047903;28;20552;-79
2023/07/17 01:48:14;;;;;;;4.43;3.60;;;;;;;;;;5053703;28;20245;-80
2023/07/17 01:50:45;;;;;;;6.03;3.60;;;;;;;;;;5056395;28;20178;-80
2023/07/17 01:53:11;;;;;;;5.30;3.40;;;;;;;;;;5040450;28;20827;-80
2023/07/17 01:55:38;;;;;;;6.83;3.73;;;;;;;;;;5041128;28;20209;-80
2023/07/17 01:58:04;;;;;;;5.33;3.70;;;;;;;;;;5039594;28;20178;-80
2023/07/17 02:00:30;;;;;;;4.83;3.70;;;;;;;;;;5044509;28;20195;-80
2023/07/17 02:02:56;;;;;;;5.83;3.80;;;;;;;;;;5041486;28;20190;-80
2023/07/17 02:05:23;;;;;;;4.83;3.53;;;;;;;;;;5042809;28;20210;-80
2023/07/17 02:07:49;;;;;;;5.23;3.47;;;;;;;;;;5042594;28;20257;-80
2023/07/17 02:10:15;;;;;;;5.00;3.50;;;;;;;;;;5045761;28;20209;-80
2023/07/17 02:12:43;;;;;;;5.47;3.63;;;;;;;;;;5041245;28;20190;-79
2023/07/17 02:15:11;;;;;;;5.80;3.47;;;;;;;;;;5042099;28;20197;-80
2023/07/17 02:17:38;;;;;;;5.90;3.50;;;;;;;;;;5023936;28;20214;-80
2023/07/17 02:20:10;;;;;;;5.27;3.83;;;;;;;;;;5044401;28;20175;-80
2023/07/17 02:22:40;;;;;;;6.40;3.53;;;;;;;;;;5037592;28;20182;-80
2023/07/17 02:25:06;;;;;;;6.03;3.73;;;;;;;;;;5059615;23;20249;-78
2023/07/17 02:27:32;;;;;;;5.03;3.43;;;;;;;;;;5030222;28;20237;-78
2023/07/17 02:29:59;;;;;;;6.67;3.80;;;;;;;;;;5025625;28;20176;-78
2023/07/17 02:32:29;;;;;;;4.57;3.50;;;;;;;;;;5009424;28;20183;-78
2023/07/17 02:34:58;;;;;;;6.10;3.33;;;;;;;;;;5026116;28;20749;-79
2023/07/17 02:37:25;;;;;;;4.53;3.27;;;;;;;;;;5017518;28;20226;-78
2023/07/17 02:39:51;;;;;;;5.23;3.63;;;;;;;;;;5018330;28;20206;-79
2023/07/17 02:42:17;;;;;;;4.93;3.70;;;;;;;;;;4998701;28;20202;-79
2023/07/17 02:44:47;;;;;;;5.63;3.70;;;;;;;;;;4993529;28;20223;-79
2023/07/17 02:47:13;;;;;;;5.13;3.73;;;;;;;;;;5011494;28;20191;-79
2023/07/17 02:49:39;;;;;;;6.67;3.93;;;;;;;;;;5009987;28;20193;-78
2023/07/17 02:52:06;;;;;;;4.73;3.90;;;;;;;;;;5011528;28;20218;-79
2023/07/17 02:54:32;;;;;;;5.63;3.80;;;;;;;;;;5027778;28;20226;-79
2023/07/17 02:56:58;;;;;;;6.27;3.67;;;;;;;;;;5012102;28;20238;-79
2023/07/17 02:59:24;;;;;;;4.13;3.30;;;;;;;;;;4997812;28;20743;-79
2023/07/17 03:01:51;;;;;;;4.83;3.80;;;;;;;;;;5016605;28;20254;-79
2023/07/17 03:04:17;;;;;;;5.80;3.63;;;;;;;;;;4987839;28;20332;-79
2023/07/17 03:06:43;;;;;;;5.97;4.20;;;;;;;;;;5012875;28;20734;-79
2023/07/17 03:09:10;;;;;;;5.87;3.50;;;;;;;;;;5014786;28;20175;-79
2023/07/17 03:11:36;;;;;;;5.30;3.77;;;;;;;;;;4993796;28;20221;-79
2023/07/17 03:14:02;;;;;;;4.90;3.77;;;;;;;;;;5007997;28;20187;-79
2023/07/17 03:16:28;;;;;;;5.50;3.90;;;;;;;;;;5011674;28;20191;-79
2023/07/17 03:18:55;;;;;;;4.83;3.40;;;;;;;;;;5012787;28;20183;-79
2023/07/17 03:21:22;;;;;;;4.23;3.40;;;;;;;;;;5012817;28;20191;-80
2023/07/17 03:23:48;;;;;;;5.60;3.90;;;;;;;;;;5012710;28;20199;-79
2023/07/17 03:26:15;;;;;;;4.13;3.60;;;;;;;;;;5012339;28;20218;-79
2023/07/17 03:28:41;;;;;;;5.03;3.90;;;;;;;;;;5013927;28;20602;-79
2023/07/17 03:31:07;;;;;;;6.10;3.97;;;;;;;;;;5018268;28;20183;-79
2023/07/17 03:33:34;;;;;;;4.10;3.43;;;;;;;;;;5017734;28;20278;-79
2023/07/17 03:36:00;;;;;;;5.10;3.70;;;;;;;;;;4985713;28;20197;-78
2023/07/17 03:38:26;;;;;;;7.27;3.80;;;;;;;;;;5002664;28;20195;-78
2023/07/17 03:40:53;;;;;;;4.07;3.53;;;;;;;;;;5007176;28;20293;-79
2023/07/17 03:43:19;;;;;;;4.40;3.30;;;;;;;;;;5019746;28;20262;-80
2023/07/17 03:45:46;;;;;;;5.23;3.60;;;;;;;;;;5026114;28;20245;-79
2023/07/17 03:48:12;;;;;;;4.80;3.20;;;;;;;;;;5023442;28;20175;-79
2023/07/17 03:50:40;;;;;;;5.67;3.33;;;;;;;;;;5022062;28;20184;-79
2023/07/17 03:53:06;;;;;;;5.10;3.50;;;;;;;;;;5004822;28;20212;-79
2023/07/17 03:55:33;;;;;;;4.63;3.53;;;;;;;;;;4983972;28;20215;-79
2023/07/17 03:58:01;;;;;;;4.87;3.90;;;;;;;;;;5021042;28;20191;-79
2023/07/17 04:00:27;;;;;;;4.87;3.73;;;;;;;;;;5020253;28;20190;-79
2023/07/17 04:02:53;;;;;;;3.93;3.50;;;;;;;;;;5016561;28;20221;-79
2023/07/17 04:05:32;;;;;;;7.20;3.90;;;;;;;;;;5020392;28;20206;-79
2023/07/17 04:07:59;;;;;;;6.60;3.80;;;;;;;;;;5007958;28;20187;-79
2023/07/17 04:10:27;;;;;;;4.97;3.40;;;;;;;;;;5021778;28;20243;-79
2023/07/17 04:12:54;;;;;;;6.63;3.80;;;;;;;;;;5024329;28;20183;-79
2023/07/17 04:15:20;;;;;;;6.07;3.90;;;;;;;;;;5020515;28;20206;-79
2023/07/17 04:17:46;;;;;;;5.90;3.60;;;;;;;;;;5020112;28;20191;-79
2023/07/17 04:20:12;;;;;;;6.13;3.90;;;;;;;;;;5018456;28;20187;-79
2023/07/17 04:22:38;;;;;;;5.23;3.83;;;;;;;;;;5020976;28;20191;-80
2023/07/17 04:25:05;;;;;;;5.63;3.80;;;;;;;;;;5023742;28;20222;-79
2023/07/17 04:27:32;;;;;;;5.33;3.80;;;;;;;;;;5022963;28;20250;-79
2023/07/17 04:29:59;;;;;;;5.07;3.60;;;;;;;;;;5021141;28;20202;-79
2023/07/17 04:32:26;;;;;;;5.10;3.73;;;;;;;;;;5001848;28;20201;-79
2023/07/17 04:34:52;;;;;;;4.47;3.57;;;;;;;;;;5001636;28;20210;-79
2023/07/17 04:37:19;;;;;;;6.00;3.50;;;;;;;;;;5021014;28;20245;-79
2023/07/17 04:39:45;;;;;;;4.10;3.30;;;;;;;;;;5020566;28;20206;-79
2023/07/17 04:42:12;;;;;;;4.90;3.90;;;;;;;;;;5002974;28;20179;-80
2023/07/17 04:44:39;;;;;;;6.03;3.90;;;;;;;;;;5014483;28;20351;-79
2023/07/17 04:47:05;;;;;;;4.57;3.50;;;;;;;;;;5020333;28;20253;-79
2023/07/17 04:49:31;;;;;;;5.50;4.20;;;;;;;;;;5010713;28;20190;-78
2023/07/17 04:51:57;;;;;;;5.73;3.70;;;;;;;;;;5016678;28;20190;-79
2023/07/17 04:54:24;;;;;;;4.50;3.63;;;;;;;;;;5016218;28;20215;-78
2023/07/17 04:56:50;;;;;;;6.13;4.00;;;;;;;;;;5014307;28;20195;-79
2023/07/17 04:59:21;;;;;;;8.50;3.90;;;;;;;;;;4999085;28;20194;-78
2023/07/17 05:01:47;;;;;;;7.00;3.67;;;;;;;;;;5009273;28;20210;-78
2023/07/17 05:04:13;;;;;;;4.13;3.67;;;;;;;;;;4996390;28;20658;-79
2023/07/17 05:06:41;;;;;;;5.43;3.70;;;;;;;;;;5012498;28;20266;-79
2023/07/17 05:09:07;;;;;;;5.57;3.63;;;;;;;;;;5014955;28;20179;-79
2023/07/17 05:11:35;;;;;;;5.50;3.70;;;;;;;;;;4995546;28;20245;-81
2023/07/17 05:14:02;;;;;;;4.77;4.20;;;;;;;;;;5012198;28;20187;-82
2023/07/17 05:16:28;;;;;;;6.00;4.03;;;;;;;;;;4992797;28;20226;-82
2023/07/17 05:18:54;;;;;;;4.83;3.70;;;;;;;;;;4976952;28;20215;-83
2023/07/17 05:21:21;;;;;;;5.33;3.80;;;;;;;;;;4996988;28;20594;-81
2023/07/17 05:23:47;;;;;;;6.00;4.10;;;;;;;;;;4980778;28;20191;-78
2023/07/17 05:26:16;;;;;;;6.83;3.93;;;;;;;;;;5008289;28;20211;-78
2023/07/17 05:28:42;;;;;;;7.77;4.10;;;;;;;;;;5013209;28;20543;-78
2023/07/17 05:31:09;;;;;;;6.60;3.80;;;;;;;;;;5015543;28;20180;-80
2023/07/17 05:33:35;;;;;;;5.47;3.87;;;;;;;;;;5014399;28;20187;-80
2023/07/17 05:36:02;;;;;;;7.67;4.07;;;;;;;;;;5012020;28;20211;-80
2023/07/17 05:38:28;;;;;;;6.37;3.77;;;;;;;;;;5013995;28;20258;-80
2023/07/17 05:41:01;;;;;;;5.97;3.90;;;;;;;;;;4996082;28;20650;-80
2023/07/17 05:43:30;;;;;;;6.00;3.83;;;;;;;;;;5016592;28;20268;-79
2023/07/17 05:46:03;;;;;;;7.70;4.00;;;;;;;;;;5005199;28;20217;-80
2023/07/17 05:48:30;;;;;;;6.60;3.97;;;;;;;;;;5017865;28;20199;-80
2023/07/17 05:50:56;;;;;;;6.60;3.83;;;;;;;;;;5015356;28;20211;-80
2023/07/17 05:53:22;;;;;;;6.43;4.13;;;;;;;;;;4996901;28;20693;-80
2023/07/17 05:55:48;;;;;;;8.07;4.27;;;;;;;;;;5013122;28;20218;-80
2023/07/17 05:58:14;;;;;;;6.93;4.23;;;;;;;;;;5014026;28;20669;-80
2023/07/17 06:00:40;;;;;;;7.67;4.03;;;;;;;;;;5014786;28;20195;-80
2023/07/17 06:03:07;;;;;;;7.10;4.30;;;;;;;;;;5013098;28;20195;-80
2023/07/17 06:05:39;;;;;;;6.63;4.17;;;;;;;;;;5012024;28;20572;-80
2023/07/17 06:08:08;;;;;;;6.70;4.53;;;;;;;;;;4992940;28;20294;-80
2023/07/17 06:10:34;;;;;;;6.50;4.13;;;;;;;;;;4988519;28;20198;-80
2023/07/17 06:13:00;;;;;;;8.23;3.87;;;;;;;;;;4993237;28;20197;-81
2023/07/17 06:15:27;;;;;;;5.83;3.80;;;;;;;;;;5005240;28;20251;-81
2023/07/17 06:17:53;;;;;;;6.67;4.00;;;;;;;;;;4979523;28;20267;-81
2023/07/17 06:20:22;;;;;;;7.63;4.37;;;;;;;;;;5014040;28;20187;-81
2023/07/17 06:22:49;;;;;;;5.20;3.67;;;;;;;;;;5014819;28;20214;-81
2023/07/17 06:25:15;;;;;;;5.93;3.93;;;;;;;;;;4996769;28;21125;-81
2023/07/17 06:27:41;;;;;;;6.20;4.07;;;;;;;;;;5016754;28;20179;-81
2023/07/17 06:30:08;;;;;;;8.13;3.70;;;;;;;;;;5018400;28;20300;-81
2023/07/17 06:32:34;;;;;;;7.03;4.13;;;;;;;;;;5017266;28;20286;-81
2023/07/17 06:35:01;;;;;;;6.50;3.70;;;;;;;;;;5011799;28;20582;-81
2023/07/17 06:37:27;;;;;;;5.17;3.73;;;;;;;;;;5018447;28;20202;-81
2023/07/17 06:39:53;;;;;;;6.13;3.77;;;;;;;;;;5022203;28;20179;-80
2023/07/17 06:42:19;;;;;;;4.73;3.80;;;;;;;;;;5017437;28;20275;-81
2023/07/17 06:44:45;;;;;;;5.93;3.87;;;;;;;;;;5015678;28;20704;-81
2023/07/17 06:47:12;;;;;;;10.63;4.03;;;;;;;;;;5014584;28;20190;-81
2023/07/17 06:49:38;;;;;;;7.97;4.07;;;;;;;;;;5016465;28;20765;-81
2023/07/17 06:52:04;;;;;;;9.40;3.80;;;;;;;;;;4998355;28;20187;-81
2023/07/17 06:54:30;;;;;;;8.07;4.00;;;;;;;;;;5013920;28;20272;-81
2023/07/17 06:56:56;;;;;;;5.30;3.73;;;;;;;;;;5013064;28;20198;-81
2023/07/17 06:59:25;;;;;;;7.20;3.97;;;;;;;;;;4995583;28;20184;-81
2023/07/17 07:01:54;;;;;;;4.40;3.60;;;;;;;;;;4996381;28;20282;-81
2023/07/17 07:04:20;;;;;;;6.37;3.87;;;;;;;;;;4994607;28;20230;-81
2023/07/17 07:06:46;;;;;;;7.43;3.90;;;;;;;;;;4997638;28;20937;-81
2023/07/17 07:09:13;;;;;;;7.83;3.80;;;;;;;;;;5012661;28;20651;-81
2023/07/17 07:11:39;;;;;;;6.27;3.80;;;;;;;;;;5011893;28;20190;-81
2023/07/17 07:14:05;;;;;;;9.70;4.40;;;;;;;;;;4974660;28;20298;-81
2023/07/17 07:16:31;;;;;;;7.00;4.10;;;;;;;;;;4988735;28;20190;-82
2023/07/17 07:18:57;;;;;;;7.63;4.33;;;;;;;;;;5014229;28;20187;-81
2023/07/17 07:21:23;;;;;;;5.57;3.70;;;;;;;;;;4994503;28;20183;-81
2023/07/17 07:23:50;;;;;;;6.93;4.03;;;;;;;;;;4993480;28;20380;-82
2023/07/17 07:26:16;;;;;;;7.87;4.60;;;;;;;;;;5014334;28;20469;-81
2023/07/17 07:28:42;;;;;;;8.23;4.23;;;;;;;;;;5011407;28;20179;-81
2023/07/17 07:31:08;;;;;;;6.20;3.90;;;;;;;;;;5007545;28;20271;-82
2023/07/17 07:33:36;;;;;;;5.53;4.00;;;;;;;;;;5013241;28;20179;-82
2023/07/17 07:36:02;;;;;;;6.13;4.37;;;;;;;;;;5011462;28;20203;-83
2023/07/17 07:38:29;;;;;;;5.60;4.03;;;;;;;;;;5014759;28;20663;-82
2023/07/17 07:40:55;;;;;;;5.73;4.00;;;;;;;;;;4991187;28;20219;-82
2023/07/17 07:43:21;;;;;;;8.73;4.00;;;;;;;;;;5019718;28;20221;-81
2023/07/17 07:45:47;;;;;;;7.73;4.67;;;;;;;;;;5015874;28;20215;-82
2023/07/17 07:48:13;;;;;;;7.63;4.10;;;;;;;;;;5000125;28;20187;-82
2023/07/17 07:50:39;;;;;;;6.70;4.27;;;;;;;;;;5002411;28;20183;-82
2023/07/17 07:53:05;;;;;;;7.57;4.37;;;;;;;;;;5015873;28;20188;-81
2023/07/17 07:55:32;;;;;;;4.33;3.93;;;;;;;;;;5015343;28;20241;-82
2023/07/17 07:57:58;;;;;;;6.73;4.20;;;;;;;;;;5015518;28;20277;-82
2023/07/17 08:00:24;;;;;;;5.70;4.20;;;;;;;;;;4998214;28;20196;-83
2023/07/17 08:02:53;;;;;;;7.63;4.53;;;;;;;;;;5014076;28;20198;-82
2023/07/17 08:05:20;;;;;;;7.40;4.60;;;;;;;;;;5018853;28;20215;-82
2023/07/17 08:07:46;;;;;;;8.00;4.70;;;;;;;;;;4999325;28;20273;-83
2023/07/17 08:10:12;;;;;;;8.70;4.63;;;;;;;;;;4998969;28;20199;-82
2023/07/17 08:12:38;;;;;;;8.13;4.70;;;;;;;;;;5015635;28;20642;-82
2023/07/17 08:15:07;;;;;;;8.83;5.23;;;;;;;;;;5015002;28;20199;-82
2023/07/17 08:17:34;;;;;;;5.87;4.20;;;;;;;;;;4996529;28;20191;-82
2023/07/17 08:20:00;;;;;;;6.20;4.23;;;;;;;;;;5013615;28;20651;-82
2023/07/17 08:22:26;;;;;;;8.63;4.10;;;;;;;;;;5010307;28;20451;-82
2023/07/17 08:24:52;;;;;;;7.27;4.00;;;;;;;;;;5023122;23;20252;-74
2023/07/17 08:27:18;;;;;;;7.23;4.30;;;;;;;;;;5026446;28;20225;-75
2023/07/17 08:29:44;;;;;;;7.17;4.00;;;;;;;;;;5028795;28;20278;-77
2023/07/17 08:32:11;;;;;;;5.67;3.83;;;;;;;;;;5028684;28;20597;-75
2023/07/17 08:34:38;;;;;;;6.87;4.23;;;;;;;;;;5025870;28;20240;-75
2023/07/17 08:37:04;;;;;;;6.93;4.10;;;;;;;;;;5028905;28;20293;-74
2023/07/17 08:39:30;;;;;;;5.17;3.77;;;;;;;;;;5026743;28;21601;-74
2023/07/17 08:41:56;;;;;;;5.97;4.03;;;;;;;;;;5028654;28;20248;-74
2023/07/17 08:44:22;;;;;;;4.73;3.40;;;;;;;;;;5028442;28;20546;-75
2023/07/17 08:46:50;;;;;;;6.20;3.60;;;;;;;;;;5025138;28;20194;-75
2023/07/17 08:49:19;;;;;;;4.63;3.70;;;;;;;;;;5027186;28;20187;-74
2023/07/17 08:51:47;;;;;;;6.10;3.63;;;;;;;;;;5027281;28;20215;-75
2023/07/17 08:54:15;;;;;;;4.07;2.70;;;;;;;;;;5026976;28;20181;-75
2023/07/17 08:56:44;;;;;;;5.97;2.80;;;;;;;;;;5025580;28;20241;-76
2023/07/17 08:59:10;;;;;;;6.10;3.30;;;;;;;;;;5028770;28;20531;-75
2023/07/17 09:01:37;;;;;;;6.67;3.00;;;;;;;;;;5025785;28;20183;-76
2023/07/17 09:04:04;;;;;;;5.07;3.00;;;;;;;;;;5025108;28;20190;-76
2023/07/17 09:06:30;;;;;;;5.83;3.03;;;;;;;;;;5022219;28;20218;-76
2023/07/17 09:08:56;;;;;;;5.07;3.47;;;;;;;;;;5022254;28;20193;-75
2023/07/17 09:11:23;;;;;;;5.27;3.03;;;;;;;;;;5037342;28;20279;-76
2023/07/17 09:13:52;;;;;;;7.17;3.10;;;;;;;;;;5025514;28;20198;-76
2023/07/17 09:16:20;;;;;;;6.10;3.00;;;;;;;;;;5025771;28;20340;-76
2023/07/17 09:18:47;;;;;;;6.30;2.87;;;;;;;;;;5027948;28;20220;-76
2023/07/17 09:21:17;;;;;;;6.87;3.17;;;;;;;;;;5028276;28;20174;-76
2023/07/17 09:23:44;;;;;;;4.93;3.00;;;;;;;;;;5041097;28;20193;-76
2023/07/17 09:26:13;;;;;;;5.50;3.13;;;;;;;;;;5026948;28;20233;-76
2023/07/17 09:28:51;;;;;;;6.77;3.47;;;;;;;;;;5032347;28;20185;-76
2023/07/17 09:31:27;;;;;;;7.23;3.27;;;;;;;;;;5030245;28;20630;-76
2023/07/17 09:33:57;;;;;;;4.33;3.10;;;;;;;;;;5022435;28;20188;-76
2023/07/17 09:36:24;;;;;;;7.93;3.10;;;;;;;;;;5023002;28;20743;-74
2023/07/17 09:38:51;;;;;;;6.43;3.37;;;;;;;;;;5023648;28;20182;-77
2023/07/17 09:41:18;;;;;;;3.60;2.80;;;;;;;;;;5023450;28;20292;-75
2023/07/17 09:43:51;;;;;;;5.93;3.30;;;;;;;;;;5025000;28;20178;-76
2023/07/17 09:46:17;;;;;;;7.77;3.37;;;;;;;;;;5025262;28;20251;-77
2023/07/17 09:48:43;;;;;;;6.67;3.40;;;;;;;;;;5027082;28;20180;-75
2023/07/17 09:51:10;;;;;;;6.57;3.93;;;;;;;;;;5026519;28;20271;-75
2023/07/17 09:53:37;;;;;;;7.47;4.03;;;;;;;;;;5042254;28;20189;-75
2023/07/17 09:56:04;;;;;;;7.17;3.80;;;;;;;;;;5014985;28;20219;-77
2023/07/17 09:58:31;;;;;;;8.40;3.57;;;;;;;;;;5033911;28;20179;-75
2023/07/17 10:00:57;;;;;;;5.47;3.20;;;;;;;;;;5026505;28;20193;-76
2023/07/17 10:03:24;;;;;;;5.83;3.50;;;;;;;;;;5031134;28;20189;-78
2023/07/17 10:05:52;;;;;;;6.43;3.37;;;;;;;;;;5031571;28;20234;-74
2023/07/17 10:08:18;;;;;;;5.00;3.50;;;;;;;;;;5030976;28;20185;-76
2023/07/17 10:10:44;;;;;;;6.13;3.60;;;;;;;;;;5030380;28;20250;-76
2023/07/17 10:13:11;;;;;;;5.03;3.07;;;;;;;;;;5028219;28;20182;-76
2023/07/17 10:15:38;;;;;;;4.97;3.17;;;;;;;;;;5023543;28;20661;-76
2023/07/17 10:18:09;;;;;;;4.43;3.20;;;;;;;;;;5029471;28;20179;-76
2023/07/17 10:20:37;;;;;;;5.47;3.20;;;;;;;;;;5029562;28;20222;-76
2023/07/17 10:23:03;;;;;;;4.07;3.40;;;;;;;;;;5031375;28;20565;-76
2023/07/17 10:25:29;;;;;;;7.83;3.60;;;;;;;;;;5030279;28;20221;-76
2023/07/17 10:28:02;;;;;;;7.57;3.50;;;;;;;;;;5029402;28;20190;-76
2023/07/17 10:30:33;;;;;;;5.40;3.57;;;;;;;;;;5030820;28;20201;-76
2023/07/17 10:33:05;;;;;;;7.43;3.60;;;;;;;;;;5029385;28;20193;-76
2023/07/17 10:35:45;;;;;;;5.73;3.70;;;;;;;;;;5027817;28;20211;-76
2023/07/17 10:38:11;;;;;;;4.30;3.50;;;;;;;;;;5028366;28;20212;-76
2023/07/17 10:40:37;;;;;;;6.70;3.80;;;;;;;;;;5030793;28;20252;-76
2023/07/17 10:43:16;;;;;;;4.30;3.40;;;;;;;;;;5030540;28;20236;-76
2023/07/17 10:45:42;;;;;;;5.13;3.60;;;;;;;;;;5029574;28;20217;-76
2023/07/17 10:48:09;;;;;;;5.20;3.43;;;;;;;;;;5031577;28;20577;-75
2023/07/17 10:50:35;;;;;;;5.27;3.37;;;;;;;;;;5028835;28;20207;-75
2023/07/17 10:53:03;;;;;;;5.13;3.50;;;;;;;;;;5037560;28;20272;-75
2023/07/17 10:55:29;;;;;;;6.23;3.47;;;;;;;;;;5027391;28;20213;-75
2023/07/17 10:57:56;;;;;;;4.50;3.50;;;;;;;;;;5030638;28;20240;-75
2023/07/17 11:00:23;;;;;;;5.23;3.93;;;;;;;;;;5029107;28;20191;-75
2023/07/17 11:02:49;;;;;;;4.83;3.57;;;;;;;;;;5029098;28;20187;-75
2023/07/17 11:05:15;;;;;;;5.43;3.70;;;;;;;;;;5029227;28;20756;-75
2023/07/17 11:07:42;;;;;;;5.20;3.50;;;;;;;;;;5031304;28;20178;-76
2023/07/17 11:10:12;;;;;;;5.50;3.60;;;;;;;;;;5028401;28;20229;-76
2023/07/17 11:12:39;;;;;;;4.40;3.40;;;;;;;;;;5022154;28;20217;-76
2023/07/17 11:15:13;;;;;;;8.57;3.77;;;;;;;;;;5019547;28;20771;-76
2023/07/17 11:17:39;;;;;;;4.13;3.47;;;;;;;;;;5024311;28;20186;-76
2023/07/17 11:20:06;;;;;;;4.63;3.57;;;;;;;;;;5024069;28;20657;-76
2023/07/17 11:22:33;;;;;;;5.13;3.30;;;;;;;;;;5023749;28;20269;-76
2023/07/17 11:24:59;;;;;;;6.00;3.37;;;;;;;;;;5022438;28;20752;-76
2023/07/17 11:27:26;;;;;;;3.93;3.53;;;;;;;;;;5024353;28;20273;-76
2023/07/17 11:29:53;;;;;;;7.10;3.30;;;;;;;;;;5022388;28;20183;-76
2023/07/17 11:32:20;;;;;;;6.33;3.20;;;;;;;;;;5023029;28;20239;-76
2023/07/17 11:34:46;;;;;;;3.90;3.00;;;;;;;;;;5028520;28;20214;-76
2023/07/17 11:37:31;;;;;;;3.97;2.90;;;;;;;;;;5027480;28;20190;-76
2023/07/17 11:39:58;;;;;;;5.67;2.90;;;;;;;;;;5029728;28;20189;-76
2023/07/17 11:42:24;;;;;;;3.73;3.17;;;;;;;;;;5028544;28;20202;-76
2023/07/17 11:45:00;;;;;;;3.70;2.90;;;;;;;;;;5029248;28;20585;-77
2023/07/17 11:47:26;;;;;;;4.20;3.10;;;;;;;;;;5021857;28;20175;-77
2023/07/17 11:49:53;;;;;;;5.40;2.93;;;;;;;;;;5024573;28;20187;-77
2023/07/17 11:52:19;;;;;;;4.30;3.00;;;;;;;;;;5027189;28;20260;-76
2023/07/17 11:54:45;;;;;;;4.90;3.10;;;;;;;;;;5025285;28;20204;-77
2023/07/17 11:57:12;;;;;;;2.77;2.40;;;;;;;;;;5025072;28;20229;-77
2023/07/17 11:59:38;;;;;;;3.73;2.53;;;;;;;;;;5017685;28;20184;-76
2023/07/17 12:02:04;;;;;;;3.67;2.30;;;;;;;;;;5026433;28;20194;-77
2023/07/17 12:04:38;;;;;;;3.60;2.20;;;;;;;;;;5025139;28;20210;-77
2023/07/17 12:07:05;;;;;;;3.20;2.80;;;;;;;;;;5021923;28;20202;-77
2023/07/17 12:09:31;;;;;;;3.83;2.70;;;;;;;;;;5029515;28;20263;-77
2023/07/17 12:11:57;;;;;;;3.27;2.60;;;;;;;;;;5024070;28;20225;-76
2023/07/17 12:14:23;;;;;;;2.70;2.47;;;;;;;;;;5025556;28;20210;-77
2023/07/17 12:16:49;;;;;;;5.47;2.40;;;;;;;;;;5027472;28;20194;-77
2023/07/17 12:19:16;;;;;;;6.83;2.40;;;;;;;;;;5028676;28;20234;-77
2023/07/17 12:21:42;;;;;;;2.60;2.40;;;;;;;;;;5022958;28;20184;-77
2023/07/17 12:24:09;;;;;;;4.33;2.20;;;;;;;;;;5025625;28;20190;-77
2023/07/17 12:26:35;;;;;;;3.27;2.53;;;;;;;;;;5015314;28;20212;-77
2023/07/17 12:29:01;;;;;;;4.00;2.50;;;;;;;;;;5007995;28;20659;-77
2023/07/17 12:31:27;;;;;;;3.10;2.30;;;;;;;;;;5010994;28;20174;-77
2023/07/17 12:33:54;;;;;;;4.30;2.10;;;;;;;;;;5028582;28;20232;-77
2023/07/17 12:36:20;;;;;;;3.50;2.00;;;;;;;;;;5026747;28;20207;-77
2023/07/17 12:38:46;;;;;;;4.87;2.13;;;;;;;;;;5028505;28;20243;-77
2023/07/17 12:41:13;;;;;;;3.10;2.00;;;;;;;;;;5028708;28;20210;-77
2023/07/17 12:43:39;;;;;;;4.40;2.73;;;;;;;;;;5027945;28;20190;-77
2023/07/17 12:46:05;;;;;;;3.77;2.80;;;;;;;;;;5025017;28;20209;-77
2023/07/17 12:48:31;;;;;;;4.63;2.70;;;;;;;;;;5024614;28;20200;-76
2023/07/17 12:50:59;;;;;;;3.37;2.70;;;;;;;;;;5013802;28;20180;-78
2023/07/17 12:53:25;;;;;;;4.63;3.53;;;;;;;;;;5029122;28;21400;-77
2023/07/17 12:55:51;;;;;;;2.53;2.33;;;;;;;;;;5020710;28;20210;-78
2023/07/17 12:58:18;;;;;;;3.70;2.50;;;;;;;;;;5026328;28;20190;-78
2023/07/17 13:00:44;;;;;;;3.07;2.43;;;;;;;;;;5023887;28;20253;-76
2023/07/17 13:03:10;;;;;;;3.13;2.30;;;;;;;;;;5019180;28;20196;-77
2023/07/17 13:05:36;;;;;;;3.97;2.60;;;;;;;;;;5025945;28;20754;-77
2023/07/17 13:08:03;;;;;;;3.53;2.50;;;;;;;;;;5022331;28;20188;-80
2023/07/17 13:10:29;;;;;;;3.37;2.23;;;;;;;;;;5025541;28;20191;-77
2023/07/17 13:12:56;;;;;;;2.77;2.30;;;;;;;;;;5025604;28;20190;-77
2023/07/17 13:15:22;;;;;;;3.13;2.47;;;;;;;;;;5025020;28;20284;-77
2023/07/17 13:17:48;;;;;;;4.27;2.30;;;;;;;;;;5026813;28;20434;-77
2023/07/17 13:20:15;;;;;;;2.60;2.00;;;;;;;;;;5024630;28;20591;-77
2023/07/17 13:22:41;;;;;;;3.53;2.40;;;;;;;;;;5027751;28;20281;-77
2023/07/17 13:25:07;;;;;;;4.37;2.43;;;;;;;;;;5024392;28;20557;-77
2023/07/17 13:27:33;;;;;;;3.07;2.33;;;;;;;;;;5028731;28;20183;-80
2023/07/17 13:30:00;;;;;;;2.60;2.10;;;;;;;;;;5028412;28;20180;-78
2023/07/17 13:32:26;;;;;;;2.67;2.23;;;;;;;;;;5025999;28;20495;-78
2023/07/17 13:34:52;;;;;;;2.57;2.30;;;;;;;;;;5026338;28;20652;-77
2023/07/17 13:37:18;;;;;;;4.63;2.43;;;;;;;;;;5027795;28;20234;-78
2023/07/17 13:39:44;;;;;;;5.30;2.47;;;;;;;;;;5025356;28;20208;-77
2023/07/17 13:42:10;;;;;;;4.60;2.23;;;;;;;;;;5027247;28;20190;-77
2023/07/17 13:44:36;;;;;;;3.87;2.30;;;;;;;;;;5032187;28;20315;-82
2023/07/17 13:47:03;;;;;;;3.27;2.30;;;;;;;;;;5032173;28;20262;-83
2023/07/17 13:49:29;;;;;;;3.97;2.27;;;;;;;;;;5030441;28;20516;-82
2023/07/17 13:51:55;;;;;;;5.93;2.40;;;;;;;;;;5033492;28;20213;-81
2023/07/17 13:54:21;;;;;;;3.40;2.10;;;;;;;;;;5030191;28;20177;-82
2023/07/17 13:56:48;;;;;;;4.57;2.40;;;;;;;;;;5034285;28;20325;-80
2023/07/17 13:59:14;;;;;;;4.33;2.67;;;;;;;;;;5036853;28;20187;-81
2023/07/17 14:01:40;;;;;;;2.37;2.17;;;;;;;;;;5038033;28;20677;-81
2023/07/17 14:04:07;;;;;;;3.13;2.30;;;;;;;;;;5031794;28;20225;-80
2023/07/17 14:06:33;;;;;;;3.53;2.30;;;;;;;;;;5044285;28;20231;-81
2023/07/17 14:08:59;;;;;;;3.10;2.53;;;;;;;;;;5033319;28;20250;-80
2023/07/17 14:11:27;;;;;;;4.23;2.53;;;;;;;;;;5013927;28;20198;-81
2023/07/17 14:13:53;;;;;;;3.30;2.43;;;;;;;;;;5031218;28;20264;-82
2023/07/17 14:16:20;;;;;;;2.40;2.07;;;;;;;;;;5031167;28;20577;-80
2023/07/17 14:18:46;;;;;;;2.93;2.20;;;;;;;;;;5033393;28;20188;-80
2023/07/17 14:21:12;;;;;;;4.10;2.40;;;;;;;;;;5031530;28;20192;-80
2023/07/17 14:23:38;;;;;;;3.20;2.37;;;;;;;;;;5030662;28;20208;-80
2023/07/17 14:26:04;;;;;;;2.93;2.40;;;;;;;;;;5064489;22;20227;-81
2023/07/17 14:28:31;;;;;;;3.53;2.30;;;;;;;;;;5038057;28;20203;-81
2023/07/17 14:30:57;;;;;;;3.00;2.40;;;;;;;;;;5065426;28;20239;-81
2023/07/17 14:33:24;;;;;;;3.50;2.27;;;;;;;;;;5059308;28;20190;-81
2023/07/17 14:35:50;;;;;;;3.43;2.40;;;;;;;;;;5053907;28;20679;-82
2023/07/17 14:38:16;;;;;;;3.03;2.10;;;;;;;;;;5053483;28;20659;-81
2023/07/17 14:40:42;;;;;;;4.83;2.30;;;;;;;;;;5054274;28;20239;-81